createdAt,value
2022-12-11T00:02:30.770Z,16.08
2022-12-11T00:12:32.414Z,16.10
2022-12-11T00:22:34.029Z,16.01
2022-12-11T00:32:37.737Z,15.93
2022-12-11T00:42:39.384Z,15.78
2022-12-11T00:52:40.925Z,15.68
2022-12-11T01:02:42.419Z,15.60
2022-12-11T01:12:43.919Z,15.49
2022-12-11T01:22:45.321Z,15.38
2022-12-11T01:32:46.804Z,15.30
2022-12-11T01:42:48.171Z,15.22
2022-12-11T01:52:49.539Z,15.12
2022-12-11T02:02:50.939Z,15.06
2022-12-11T02:12:57.616Z,15.12
2022-12-11T02:23:17.605Z,15.23
2022-12-11T02:33:21.700Z,15.35
2022-12-11T02:43:23.305Z,15.51
2022-12-11T02:53:26.498Z,15.61
2022-12-11T03:03:28.585Z,15.69
2022-12-11T03:13:29.969Z,15.76
2022-12-11T03:24:03.573Z,15.85
2022-12-11T03:34:18.538Z,15.90
2022-12-11T03:44:20.205Z,15.97
2022-12-11T03:54:21.590Z,16.00
2022-12-11T04:04:23.004Z,16.04
2022-12-11T04:14:43.195Z,16.12
2022-12-11T04:24:44.748Z,16.13
2022-12-11T04:34:46.200Z,16.14
2022-12-11T04:44:47.581Z,16.04
2022-12-11T04:54:49.018Z,15.95
2022-12-11T05:04:50.567Z,15.88
2022-12-11T05:14:54.959Z,15.88
2022-12-11T05:24:58.658Z,15.96
2022-12-11T05:35:00.035Z,16.05
2022-12-11T05:45:01.418Z,16.19
2022-12-11T05:55:02.836Z,16.29
2022-12-11T06:05:04.329Z,16.39
2022-12-11T06:15:06.103Z,16.43
2022-12-11T06:25:07.786Z,16.47
2022-12-11T06:35:09.708Z,16.53
2022-12-11T06:45:11.588Z,16.58
2022-12-11T06:55:13.527Z,16.62
2022-12-11T07:05:15.070Z,16.66
2022-12-11T07:15:16.671Z,16.71
2022-12-11T07:25:18.124Z,16.76
2022-12-11T07:35:19.527Z,16.81
2022-12-11T07:45:20.917Z,16.85
2022-12-11T07:55:22.343Z,16.89
2022-12-11T08:05:23.787Z,16.90
2022-12-11T08:15:29.356Z,16.90
2022-12-11T08:25:30.730Z,16.93
2022-12-11T08:35:32.301Z,16.97
2022-12-11T08:45:33.748Z,16.99
2022-12-11T08:55:35.181Z,17.01
2022-12-11T09:05:48.295Z,17.03
2022-12-11T09:15:49.731Z,17.02
2022-12-11T09:26:03.064Z,17.00
2022-12-11T09:36:05.019Z,17.01
2022-12-11T09:46:16.467Z,17.03
2022-12-11T09:56:27.498Z,17.03
2022-12-11T10:06:54.670Z,17.03
2022-12-11T10:17:20.591Z,17.03
2022-12-11T10:27:23.800Z,17.04
2022-12-11T10:37:25.169Z,17.03
2022-12-11T10:47:26.910Z,17.04
2022-12-11T10:57:35.567Z,17.05
2022-12-11T11:07:37.136Z,17.06
2022-12-11T11:18:14.282Z,17.09
2022-12-11T11:28:22.584Z,17.16
2022-12-11T11:38:27.107Z,17.16
2022-12-11T11:48:48.768Z,17.16
2022-12-11T11:59:12.820Z,17.23
2022-12-11T12:09:29.512Z,17.27
2022-12-11T12:19:49.717Z,17.31
2022-12-11T12:30:18.770Z,17.37
2022-12-11T12:40:43.079Z,17.39
2022-12-11T12:50:47.840Z,17.41
2022-12-11T13:00:49.254Z,17.43
2022-12-11T13:10:59.547Z,17.38
2022-12-11T13:21:01.465Z,17.33
2022-12-11T13:31:14.889Z,17.21
2022-12-11T13:41:17.435Z,17.05
2022-12-11T13:51:21.146Z,16.95
2022-12-11T14:01:30.548Z,16.84
2022-12-11T14:11:37.116Z,16.69
2022-12-11T14:21:38.502Z,16.56
2022-12-11T14:31:41.751Z,16.45
2022-12-11T14:41:47.793Z,16.35
2022-12-11T14:51:49.293Z,16.25
2022-12-11T15:02:04.368Z,16.13
2022-12-11T15:12:24.237Z,16.03
2022-12-11T15:22:26.142Z,15.91
2022-12-11T15:32:27.606Z,15.80
2022-12-11T15:42:39.935Z,15.70
2022-12-11T15:52:41.531Z,15.60
2022-12-11T16:02:43.143Z,15.53
2022-12-11T16:12:44.736Z,15.42
2022-12-11T16:22:46.181Z,15.31
2022-12-11T16:32:47.671Z,15.22
2022-12-11T16:42:49.402Z,15.15
2022-12-11T16:52:51.024Z,15.08
2022-12-11T17:02:52.655Z,15.05
2022-12-11T17:12:54.282Z,14.98
2022-12-11T17:22:56.075Z,14.90
2022-12-11T17:32:57.487Z,14.86
2022-12-11T17:42:58.989Z,14.78
2022-12-11T17:53:00.637Z,14.69
2022-12-11T18:03:02.168Z,14.64
2022-12-11T18:13:03.574Z,14.57
2022-12-11T18:23:05.023Z,14.51
2022-12-11T18:33:06.568Z,14.50
2022-12-11T18:43:08.094Z,14.65
2022-12-11T18:53:09.875Z,14.83
2022-12-11T19:03:11.931Z,15.01
2022-12-11T19:13:13.636Z,15.16
2022-12-11T19:23:15.292Z,15.24
2022-12-11T19:33:16.717Z,15.34
2022-12-11T19:43:19.460Z,15.42
2022-12-11T19:53:20.896Z,15.51
2022-12-11T20:03:22.482Z,15.58
2022-12-11T20:13:23.964Z,15.65
2022-12-11T20:23:25.376Z,15.73
2022-12-11T20:33:26.877Z,15.71
2022-12-11T20:43:28.311Z,15.64
2022-12-11T20:53:29.804Z,15.59
2022-12-11T21:03:35.381Z,15.49
2022-12-11T21:13:38.983Z,15.42
2022-12-11T21:23:40.400Z,15.30
2022-12-11T21:33:41.915Z,15.25
2022-12-11T21:44:14.525Z,15.16
2022-12-11T21:54:06.179Z,15.11
2022-12-11T22:04:08.258Z,15.01
2022-12-11T22:14:12.384Z,14.95
2022-12-11T22:24:14.191Z,14.84
2022-12-11T22:34:15.568Z,14.77
2022-12-11T22:44:18.416Z,14.84
2022-12-11T22:54:19.865Z,14.98
2022-12-11T23:04:21.338Z,15.11
2022-12-11T23:14:25.194Z,15.22
2022-12-11T23:24:26.587Z,15.31
2022-12-11T23:34:28.116Z,15.39
2022-12-11T23:44:29.521Z,15.49
2022-12-11T23:54:31.098Z,15.55
